sensor_id;sensor_type;location;lat;lon;timestamp;pressure;altitude;pressure_sealevel;temperature;humidity
5609;BME280;2826;51.354;9.588;2022-09-09T00:00:14;97621.06;;;14.33;100.00
5609;BME280;2826;51.354;9.588;2022-09-09T00:02:46;97619.41;;;14.32;100.00
5609;BME280;2826;51.354;9.588;2022-09-09T00:05:20;97618.59;;;14.32;100.00
5609;BME280;2826;51.354;9.588;2022-09-09T00:07:54;97619.41;;;14.32;100.00
5609;BME280;2826;51.354;9.588;2022-09-09T00:10:27;97612.34;;;14.34;100.00
5609;BME280;2826;51.354;9.588;2022-09-09T00:13:01;97616.50;;;14.37;100.00
5609;BME280;2826;51.354;9.588;2022-09-09T00:15:38;97611.94;;;14.41;100.00
5609;BME280;2826;51.354;9.588;2022-09-09T00:18:15;97611.94;;;14.41;100.00
5609;BME280;2826;51.354;9.588;2022-09-09T00:20:49;97621.31;;;14.43;100.00
5609;BME280;2826;51.354;9.588;2022-09-09T00:23:24;97609.13;;;14.44;100.00
5609;BME280;2826;51.354;9.588;2022-09-09T00:26:00;97608.59;;;14.39;100.00
5609;BME280;2826;51.354;9.588;2022-09-09T00:28:28;97618.72;;;14.43;100.00
5609;BME280;2826;51.354;9.588;2022-09-09T00:31:04;97609.31;;;14.41;100.00
5609;BME280;2826;51.354;9.588;2022-09-09T00:33:35;97607.75;;;14.38;100.00
5609;BME280;2826;51.354;9.588;2022-09-09T00:36:10;97602.81;;;14.33;100.00
5609;BME280;2826;51.354;9.588;2022-09-09T00:38:42;97599.38;;;14.33;100.00
5609;BME280;2826;51.354;9.588;2022-09-09T00:41:15;97603.75;;;14.32;100.00
5609;BME280;2826;51.354;9.588;2022-09-09T00:43:46;97603.84;;;14.31;100.00
5609;BME280;2826;51.354;9.588;2022-09-09T00:46:44;97603.22;;;14.27;100.00
5609;BME280;2826;51.354;9.588;2022-09-09T00:49:27;97599.88;;;14.25;100.00
5609;BME280;2826;51.354;9.588;2022-09-09T00:52:08;97596.63;;;14.21;100.00
5609;BME280;2826;51.354;9.588;2022-09-09T00:54:49;97592.34;;;14.20;100.00
5609;BME280;2826;51.354;9.588;2022-09-09T00:57:25;97607.91;;;14.22;100.00
5609;BME280;2826;51.354;9.588;2022-09-09T00:59:59;97601.75;;;14.23;100.00
5609;BME280;2826;51.354;9.588;2022-09-09T01:02:41;97604.44;;;14.21;100.00
5609;BME280;2826;51.354;9.588;2022-09-09T01:05:13;97607.13;;;14.20;100.00
5609;BME280;2826;51.354;9.588;2022-09-09T01:07:47;97599.31;;;14.20;100.00
5609;BME280;2826;51.354;9.588;2022-09-09T01:10:23;97601.94;;;14.20;100.00
5609;BME280;2826;51.354;9.588;2022-09-09T01:12:56;97611.63;;;14.18;100.00
5609;BME280;2826;51.354;9.588;2022-09-09T01:15:29;97611.81;;;14.15;100.00
5609;BME280;2826;51.354;9.588;2022-09-09T01:18:02;97618.16;;;14.10;100.00
5609;BME280;2826;51.354;9.588;2022-09-09T01:20:39;97607.69;;;13.97;100.00
5609;BME280;2826;51.354;9.588;2022-09-09T01:23:41;97626.56;;;14.01;100.00
5609;BME280;2826;51.354;9.588;2022-09-09T01:26:28;97614.56;;;13.98;100.00
5609;BME280;2826;51.354;9.588;2022-09-09T01:29:01;97614.47;;;14.00;100.00
5609;BME280;2826;51.354;9.588;2022-09-09T01:31:37;97616.13;;;14.01;100.00
5609;BME280;2826;51.354;9.588;2022-09-09T01:34:10;97608.31;;;14.01;100.00
5609;BME280;2826;51.354;9.588;2022-09-09T01:36:42;97609.97;;;14.02;100.00
5609;BME280;2826;51.354;9.588;2022-09-09T01:39:12;97615.94;;;14.04;100.00
5609;BME280;2826;51.354;9.588;2022-09-09T01:41:41;97610.72;;;14.04;100.00
5609;BME280;2826;51.354;9.588;2022-09-09T01:44:12;97607.38;;;14.02;100.00
5609;BME280;2826;51.354;9.588;2022-09-09T01:46:42;97612.50;;;14.04;100.00
5609;BME280;2826;51.354;9.588;2022-09-09T01:49:17;97600.13;;;14.07;100.00
5609;BME280;2826;51.354;9.588;2022-09-09T01:51:49;97605.88;;;14.13;100.00
5609;BME280;2826;51.354;9.588;2022-09-09T01:54:18;97595.34;;;14.14;100.00
5609;BME280;2826;51.354;9.588;2022-09-09T01:56:54;97598.78;;;14.15;100.00
5609;BME280;2826;51.354;9.588;2022-09-09T01:59:50;97601.38;;;14.15;100.00
5609;BME280;2826;51.354;9.588;2022-09-09T02:02:25;97610.16;;;14.14;100.00
5609;BME280;2826;51.354;9.588;2022-09-09T02:05:16;97603.44;;;14.09;100.00
5609;BME280;2826;51.354;9.588;2022-09-09T02:07:47;97609.41;;;14.11;100.00
5609;BME280;2826;51.354;9.588;2022-09-09T02:10:31;97609.41;;;14.11;100.00
5609;BME280;2826;51.354;9.588;2022-09-09T02:13:13;97596.38;;;14.11;100.00
5609;BME280;2826;51.354;9.588;2022-09-09T02:15:45;97600.56;;;14.14;100.00
5609;BME280;2826;51.354;9.588;2022-09-09T02:18:15;97611.63;;;14.18;100.00
5609;BME280;2826;51.354;9.588;2022-09-09T02:20:48;97607.91;;;14.22;100.00
5609;BME280;2826;51.354;9.588;2022-09-09T02:23:17;97605.81;;;14.27;100.00
5609;BME280;2826;51.354;9.588;2022-09-09T02:25:47;97605.63;;;14.30;100.00
5609;BME280;2826;51.354;9.588;2022-09-09T02:28:24;97609.81;;;14.33;100.00
5609;BME280;2826;51.354;9.588;2022-09-09T02:30:53;97550.88;;;14.03;100.00
5609;BME280;2826;51.354;9.588;2022-09-09T02:33:24;97604.50;;;14.34;100.00
5609;BME280;2826;51.354;9.588;2022-09-09T02:35:54;97606.16;;;14.35;100.00
5609;BME280;2826;51.354;9.588;2022-09-09T02:38:33;97604.38;;;14.36;100.00
5609;BME280;2826;51.354;9.588;2022-09-09T02:41:08;97599.06;;;14.37;100.00
5609;BME280;2826;51.354;9.588;2022-09-09T02:43:38;97605.75;;;14.42;100.00
5609;BME280;2826;51.354;9.588;2022-09-09T02:46:22;97600.47;;;14.43;100.00
5609;BME280;2826;51.354;9.588;2022-09-09T02:48:59;97555.22;;;14.17;100.00
5609;BME280;2826;51.354;9.588;2022-09-09T02:51:36;97611.41;;;14.48;100.00
5609;BME280;2826;51.354;9.588;2022-09-09T02:54:12;97614.88;;;14.49;100.00
5609;BME280;2826;51.354;9.588;2022-09-09T02:56:47;97609.56;;;14.50;100.00
5609;BME280;2826;51.354;9.588;2022-09-09T02:59:18;97606.88;;;14.52;100.00
5609;BME280;2826;51.354;9.588;2022-09-09T03:01:45;97608.53;;;14.53;100.00
5609;BME280;2826;51.354;9.588;2022-09-09T03:04:12;97607.59;;;14.54;100.00
5609;BME280;2826;51.354;9.588;2022-09-09T03:06:40;97610.09;;;14.56;100.00
5609;BME280;2826;51.354;9.588;2022-09-09T03:09:16;97616.97;;;14.57;100.00
5609;BME280;2826;51.354;9.588;2022-09-09T03:11:43;97612.63;;;14.57;100.00
5609;BME280;2826;51.354;9.588;2022-09-09T03:14:11;97611.66;;;14.58;100.00
5609;BME280;2826;51.354;9.588;2022-09-09T03:16:41;97613.34;;;14.59;100.00
5609;BME280;2826;51.354;9.588;2022-09-09T03:19:09;97617.75;;;14.59;100.00
5609;BME280;2826;51.354;9.588;2022-09-09T03:21:36;97614.28;;;14.58;100.00
5609;BME280;2826;51.354;9.588;2022-09-09T03:24:03;97622.19;;;14.57;100.00
5609;BME280;2826;51.354;9.588;2022-09-09T03:26:33;97617.84;;;14.57;100.00
5609;BME280;2826;51.354;9.588;2022-09-09T03:29:00;97605.06;;;14.53;100.00
5609;BME280;2826;51.354;9.588;2022-09-09T03:31:29;97616.44;;;14.52;100.00
5609;BME280;2826;51.354;9.588;2022-09-09T03:33:59;97611.31;;;14.50;100.00
5609;BME280;2826;51.354;9.588;2022-09-09T03:36:29;97601.94;;;14.47;100.00
5609;BME280;2826;51.354;9.588;2022-09-09T03:38:56;97602.03;;;14.46;100.00
5609;BME280;2826;51.354;9.588;2022-09-09T03:41:25;97603.91;;;14.44;100.00
5609;BME280;2826;51.354;9.588;2022-09-09T03:43:53;97597.84;;;14.43;100.00
5609;BME280;2826;51.354;9.588;2022-09-09T03:46:24;97601.09;;;14.47;100.00
5609;BME280;2826;51.354;9.588;2022-09-09T03:48:52;97599.31;;;14.47;100.00
5609;BME280;2826;51.354;9.588;2022-09-09T03:51:21;97593.38;;;14.45;100.00
5609;BME280;2826;51.354;9.588;2022-09-09T03:53:48;97597.75;;;14.45;100.00
5609;BME280;2826;51.354;9.588;2022-09-09T03:56:15;97596.81;;;14.46;100.00
5609;BME280;2826;51.354;9.588;2022-09-09T03:58:42;97601.09;;;14.47;100.00
5609;BME280;2826;51.354;9.588;2022-09-09T04:01:12;97603.50;;;14.50;100.00
5609;BME280;2826;51.354;9.588;2022-09-09T04:03:41;97596.72;;;14.47;100.00
5609;BME280;2826;51.354;9.588;2022-09-09T04:06:09;97599.03;;;14.52;100.00
5609;BME280;2826;51.354;9.588;2022-09-09T04:08:39;97597.16;;;14.54;100.00
5609;BME280;2826;51.354;9.588;2022-09-09T04:11:06;97592.56;;;14.58;100.00
5609;BME280;2826;51.354;9.588;2022-09-09T04:13:35;97594.34;;;14.57;100.00
5609;BME280;2826;51.354;9.588;2022-09-09T04:16:04;97583.06;;;14.57;100.00
5609;BME280;2826;51.354;9.588;2022-09-09T04:18:34;97584.84;;;14.56;100.00
5609;BME280;2826;51.354;9.588;2022-09-09T04:21:02;97584.84;;;14.56;100.00
5609;BME280;2826;51.354;9.588;2022-09-09T04:23:32;97589.13;;;14.57;100.00
5609;BME280;2826;51.354;9.588;2022-09-09T04:26:02;97589.84;;;14.59;100.00
5609;BME280;2826;51.354;9.588;2022-09-09T04:28:33;97576.03;;;14.44;100.00
5609;BME280;2826;51.354;9.588;2022-09-09T04:31:06;97592.78;;;14.55;100.00
5609;BME280;2826;51.354;9.588;2022-09-09T04:33:33;97602.38;;;14.54;100.00
5609;BME280;2826;51.354;9.588;2022-09-09T04:36:01;97579.59;;;14.43;100.00
5609;BME280;2826;51.354;9.588;2022-09-09T04:38:28;97598.28;;;14.50;100.00
5609;BME280;2826;51.354;9.588;2022-09-09T04:40:55;97599.03;;;14.52;100.00
5609;BME280;2826;51.354;9.588;2022-09-09T04:43:24;97603.22;;;14.55;100.00
5609;BME280;2826;51.354;9.588;2022-09-09T04:45:52;97604.13;;;14.54;100.00
5609;BME280;2826;51.354;9.588;2022-09-09T04:48:22;97608.53;;;14.53;100.00
5609;BME280;2826;51.354;9.588;2022-09-09T04:50:54;97609.47;;;14.52;100.00
5609;BME280;2826;51.354;9.588;2022-09-09T04:53:21;97609.66;;;14.49;100.00
5609;BME280;2826;51.354;9.588;2022-09-09T04:55:48;97609.75;;;14.47;100.00
5609;BME280;2826;51.354;9.588;2022-09-09T04:58:15;97609.84;;;14.46;100.00
5609;BME280;2826;51.354;9.588;2022-09-09T05:00:44;97607.25;;;14.46;100.00
5609;BME280;2826;51.354;9.588;2022-09-09T05:03:12;97613.59;;;14.42;100.00
5609;BME280;2826;51.354;9.588;2022-09-09T05:05:39;97610.03;;;14.43;100.00
5609;BME280;2826;51.354;9.588;2022-09-09T05:08:08;97614.44;;;14.42;100.00
5609;BME280;2826;51.354;9.588;2022-09-09T05:10:37;97609.31;;;14.41;100.00
5609;BME280;2826;51.354;9.588;2022-09-09T05:13:05;97611.50;;;14.47;100.00
5609;BME280;2826;51.354;9.588;2022-09-09T05:15:33;97602.78;;;14.48;100.00
5609;BME280;2826;51.354;9.588;2022-09-09T05:18:03;97609.47;;;14.52;100.00
5609;BME280;2826;51.354;9.588;2022-09-09T05:20:31;97616.34;;;14.53;100.00
5609;BME280;2826;51.354;9.588;2022-09-09T05:22:58;97619.59;;;14.57;100.00
5609;BME280;2826;51.354;9.588;2022-09-09T05:25:29;97615.13;;;14.59;100.00
5609;BME280;2826;51.354;9.588;2022-09-09T05:27:58;97627.84;;;14.63;100.00
5609;BME280;2826;51.354;9.588;2022-09-09T05:30:25;97618.91;;;14.68;100.00
5609;BME280;2826;51.354;9.588;2022-09-09T05:32:55;97619.44;;;14.73;100.00
5609;BME280;2826;51.354;9.588;2022-09-09T05:35:24;97619.25;;;14.76;100.00
5609;BME280;2826;51.354;9.588;2022-09-09T05:37:50;97617.38;;;14.78;100.00
5609;BME280;2826;51.354;9.588;2022-09-09T05:40:18;97621.78;;;14.78;100.00
5609;BME280;2826;51.354;9.588;2022-09-09T05:42:47;97630.31;;;14.80;100.00
5609;BME280;2826;51.354;9.588;2022-09-09T05:45:14;97621.47;;;14.82;100.00
5609;BME280;2826;51.354;9.588;2022-09-09T05:47:41;97629.09;;;14.85;100.00
5609;BME280;2826;51.354;9.588;2022-09-09T05:50:10;97630.97;;;14.83;100.00
5609;BME280;2826;51.354;9.588;2022-09-09T05:52:41;97628.38;;;14.83;100.00
5609;BME280;2826;51.354;9.588;2022-09-09T05:55:08;97631.91;;;14.82;100.00
5609;BME280;2826;51.354;9.588;2022-09-09T05:57:35;97628.47;;;14.82;100.00
5609;BME280;2826;51.354;9.588;2022-09-09T06:00:03;97628.38;;;14.83;100.00
5609;BME280;2826;51.354;9.588;2022-09-09T06:02:39;97635.16;;;14.86;100.00
5609;BME280;2826;51.354;9.588;2022-09-09T06:05:09;97633.09;;;14.91;100.00
5609;BME280;2826;51.354;9.588;2022-09-09T06:07:37;97635.91;;;15.01;100.00
5609;BME280;2826;51.354;9.588;2022-09-09T06:10:09;97634.25;;;15.13;100.00
5609;BME280;2826;51.354;9.588;2022-09-09T06:12:36;97639.38;;;15.27;100.00
5609;BME280;2826;51.354;9.588;2022-09-09T06:15:03;97636.38;;;15.47;100.00
5609;BME280;2826;51.354;9.588;2022-09-09T06:17:31;97633.63;;;15.61;99.15
5609;BME280;2826;51.354;9.588;2022-09-09T06:19:57;97627.13;;;15.80;98.24
5609;BME280;2826;51.354;9.588;2022-09-09T06:22:24;97632.34;;;15.93;96.70
5609;BME280;2826;51.354;9.588;2022-09-09T06:24:51;97625.75;;;16.00;95.28
5609;BME280;2826;51.354;9.588;2022-09-09T06:27:20;97624.97;;;16.11;94.82
5609;BME280;2826;51.354;9.588;2022-09-09T06:29:47;97622.44;;;16.23;93.98
5609;BME280;2826;51.354;9.588;2022-09-09T06:32:15;97630.69;;;16.29;93.63
5609;BME280;2826;51.354;9.588;2022-09-09T06:34:43;97627.91;;;16.44;93.38
5609;BME280;2826;51.354;9.588;2022-09-09T06:37:11;97634.00;;;16.56;91.40
5609;BME280;2826;51.354;9.588;2022-09-09T06:39:43;97632.97;;;16.58;89.93
5609;BME280;2826;51.354;9.588;2022-09-09T06:42:10;97633.19;;;16.55;90.61
5609;BME280;2826;51.354;9.588;2022-09-09T06:44:50;97627.00;;;16.56;89.33
5609;BME280;2826;51.354;9.588;2022-09-09T06:47:30;97632.28;;;16.68;89.84
5609;BME280;2826;51.354;9.588;2022-09-09T06:49:59;97640.50;;;16.75;88.36
5609;BME280;2826;51.354;9.588;2022-09-09T06:52:26;97636.22;;;16.74;88.56
5609;BME280;2826;51.354;9.588;2022-09-09T06:54:54;97630.88;;;16.75;87.37
5609;BME280;2826;51.354;9.588;2022-09-09T06:57:24;97631.72;;;16.76;88.21
5609;BME280;2826;51.354;9.588;2022-09-09T06:59:53;97634.84;;;16.81;89.51
5609;BME280;2826;51.354;9.588;2022-09-09T07:02:20;97637.22;;;16.84;88.19
5609;BME280;2826;51.354;9.588;2022-09-09T07:04:47;97633.28;;;16.78;88.57
5609;BME280;2826;51.354;9.588;2022-09-09T07:07:17;97641.16;;;16.78;88.94
5609;BME280;2826;51.354;9.588;2022-09-09T07:09:44;97639.59;;;16.76;90.16
5609;BME280;2826;51.354;9.588;2022-09-09T07:12:12;97640.50;;;16.75;89.06
5609;BME280;2826;51.354;9.588;2022-09-09T07:14:45;97646.91;;;16.70;89.84
5609;BME280;2826;51.354;9.588;2022-09-09T07:17:13;97647.44;;;16.76;89.69
5609;BME280;2826;51.354;9.588;2022-09-09T07:19:40;97650.56;;;16.81;90.26
5609;BME280;2826;51.354;9.588;2022-09-09T07:22:07;97649.97;;;16.89;89.46
5609;BME280;2826;51.354;9.588;2022-09-09T07:24:37;97649.50;;;16.95;90.09
5609;BME280;2826;51.354;9.588;2022-09-09T07:27:04;97652.22;;;16.93;90.31
5609;BME280;2826;51.354;9.588;2022-09-09T07:29:31;97661.94;;;17.04;90.59
5609;BME280;2826;51.354;9.588;2022-09-09T07:31:58;97669.00;;;17.15;90.23
5609;BME280;2826;51.354;9.588;2022-09-09T07:34:32;97668.06;;;17.16;90.03
5609;BME280;2826;51.354;9.588;2022-09-09T07:41:22;97670.66;;;17.05;90.23
5609;BME280;2826;51.354;9.588;2022-09-09T07:43:51;97668.97;;;17.04;89.47
5609;BME280;2826;51.354;9.588;2022-09-09T07:46:21;97672.19;;;17.07;89.42
5609;BME280;2826;51.354;9.588;2022-09-09T07:48:52;97665.47;;;17.16;89.44
5609;BME280;2826;51.354;9.588;2022-09-09T07:51:27;97646.50;;;17.13;88.31
5609;BME280;2826;51.354;9.588;2022-09-09T07:53:58;97667.38;;;17.37;88.20
5609;BME280;2826;51.354;9.588;2022-09-09T07:56:26;97671.00;;;17.47;88.89
5609;BME280;2826;51.354;9.588;2022-09-09T07:58:55;97673.63;;;17.47;87.56
5609;BME280;2826;51.354;9.588;2022-09-09T08:01:23;97681.22;;;17.39;86.68
5609;BME280;2826;51.354;9.588;2022-09-09T08:03:55;97682.16;;;17.27;87.04
5609;BME280;2826;51.354;9.588;2022-09-09T08:06:26;97690.47;;;17.20;87.88
5609;BME280;2826;51.354;9.588;2022-09-09T08:08:53;97676.63;;;17.07;88.58
5609;BME280;2826;51.354;9.588;2022-09-09T08:11:24;97663.44;;;16.95;89.02
5609;BME280;2826;51.354;9.588;2022-09-09T08:13:51;97680.91;;;17.08;89.28
5609;BME280;2826;51.354;9.588;2022-09-09T08:16:21;97674.50;;;17.12;88.59
5609;BME280;2826;51.354;9.588;2022-09-09T08:18:49;97680.22;;;17.17;88.01
5609;BME280;2826;51.354;9.588;2022-09-09T08:21:19;97677.25;;;17.22;87.69
5609;BME280;2826;51.354;9.588;2022-09-09T08:23:49;97674.44;;;17.36;87.61
5609;BME280;2826;51.354;9.588;2022-09-09T08:26:19;97677.06;;;17.48;86.07
5609;BME280;2826;51.354;9.588;2022-09-09T08:28:49;97683.50;;;17.55;85.40
5609;BME280;2826;51.354;9.588;2022-09-09T08:31:19;97679.44;;;17.51;84.82
5609;BME280;2826;51.354;9.588;2022-09-09T08:33:47;97678.97;;;17.46;85.52
5609;BME280;2826;51.354;9.588;2022-09-09T08:36:16;97672.53;;;17.39;85.56
5609;BME280;2826;51.354;9.588;2022-09-09T08:38:48;97655.34;;;17.23;85.48
5609;BME280;2826;51.354;9.588;2022-09-09T08:41:29;97683.84;;;17.50;85.17
5609;BME280;2826;51.354;9.588;2022-09-09T08:44:03;97691.00;;;17.60;84.31
5609;BME280;2826;51.354;9.588;2022-09-09T08:46:35;97692.09;;;17.80;85.25
5609;BME280;2826;51.354;9.588;2022-09-09T08:49:16;97699.66;;;18.08;84.23
5609;BME280;2826;51.354;9.588;2022-09-09T08:51:48;97698.09;;;18.17;81.68
5609;BME280;2826;51.354;9.588;2022-09-09T08:54:17;97698.47;;;18.23;81.41
5609;BME280;2826;51.354;9.588;2022-09-09T08:56:44;97687.69;;;18.26;82.23
5609;BME280;2826;51.354;9.588;2022-09-09T08:59:15;97692.94;;;18.26;81.82
5609;BME280;2826;51.354;9.588;2022-09-09T09:01:52;97703.69;;;18.23;80.97
5609;BME280;2826;51.354;9.588;2022-09-09T09:04:45;97701.09;;;18.23;80.40
5609;BME280;2826;51.354;9.588;2022-09-09T09:07:21;97704.41;;;18.14;80.38
5609;BME280;2826;51.354;9.588;2022-09-09T09:09:58;97685.78;;;17.94;80.30
5609;BME280;2826;51.354;9.588;2022-09-09T09:12:37;97709.25;;;18.07;81.98
5609;BME280;2826;51.354;9.588;2022-09-09T09:15:11;97702.38;;;18.18;80.05
5609;BME280;2826;51.354;9.588;2022-09-09T09:17:42;97698.19;;;18.38;77.42
5609;BME280;2826;51.354;9.588;2022-09-09T09:20:12;97675.19;;;18.63;75.80
5609;BME280;2826;51.354;9.588;2022-09-09T09:22:46;97695.44;;;19.16;74.74
5609;BME280;2826;51.354;9.588;2022-09-09T09:25:19;97690.44;;;19.35;71.93
5609;BME280;2826;51.354;9.588;2022-09-09T09:27:55;97694.47;;;19.39;72.59
5609;BME280;2826;51.354;9.588;2022-09-09T09:30:31;97687.88;;;19.44;70.86
5609;BME280;2826;51.354;9.588;2022-09-09T09:33:10;97695.63;;;19.46;70.39
5609;BME280;2826;51.354;9.588;2022-09-09T09:35:41;97682.81;;;19.53;70.62
5609;BME280;2826;51.354;9.588;2022-09-09T09:38:16;97684.28;;;19.77;70.39
5609;BME280;2826;51.354;9.588;2022-09-09T09:40:50;97683.91;;;19.81;68.31
5609;BME280;2826;51.354;9.588;2022-09-09T09:43:22;97693.38;;;19.94;68.77
5609;BME280;2826;51.354;9.588;2022-09-09T09:45:51;97684.84;;;20.02;67.70
5609;BME280;2826;51.354;9.588;2022-09-09T09:48:18;97682.75;;;19.95;66.88
5609;BME280;2826;51.354;9.588;2022-09-09T09:50:50;97684.47;;;19.85;67.31
5609;BME280;2826;51.354;9.588;2022-09-09T09:53:24;97693.34;;;19.84;68.76
5609;BME280;2826;51.354;9.588;2022-09-09T09:55:56;97674.63;;;19.77;68.02
5609;BME280;2826;51.354;9.588;2022-09-09T09:58:26;97678.78;;;20.11;67.78
5609;BME280;2826;51.354;9.588;2022-09-09T10:00:54;97678.88;;;20.50;65.96
5609;BME280;2826;51.354;9.588;2022-09-09T10:03:27;97670.91;;;20.92;65.24
5609;BME280;2826;51.354;9.588;2022-09-09T10:05:56;97679.91;;;21.09;64.06
5609;BME280;2826;51.354;9.588;2022-09-09T10:08:24;97679.78;;;21.10;62.75
5609;BME280;2826;51.354;9.588;2022-09-09T10:11:26;97680.03;;;21.07;60.86
5609;BME280;2826;51.354;9.588;2022-09-09T10:14:01;97683.19;;;20.81;60.24
5609;BME280;2826;51.354;9.588;2022-09-09T10:16:44;97682.34;;;20.61;60.73
5609;BME280;2826;51.354;9.588;2022-09-09T10:19:16;97675.00;;;20.65;61.82
5609;BME280;2826;51.354;9.588;2022-09-09T10:22:02;97671.41;;;20.75;61.73
5609;BME280;2826;51.354;9.588;2022-09-09T10:24:51;97683.06;;;20.83;62.29
5609;BME280;2826;51.354;9.588;2022-09-09T10:27:29;97679.22;;;20.87;60.28
5609;BME280;2826;51.354;9.588;2022-09-09T10:30:03;97675.56;;;20.68;60.74
5609;BME280;2826;51.354;9.588;2022-09-09T10:32:41;97679.88;;;20.79;61.70
5609;BME280;2826;51.354;9.588;2022-09-09T10:35:17;97662.03;;;20.93;62.10
5609;BME280;2826;51.354;9.588;2022-09-09T10:37:58;97661.41;;;21.28;62.20
5609;BME280;2826;51.354;9.588;2022-09-09T10:40:32;97662.44;;;21.65;60.96
5609;BME280;2826;51.354;9.588;2022-09-09T10:43:11;97662.19;;;21.59;59.43
5609;BME280;2826;51.354;9.588;2022-09-09T10:45:46;97658.09;;;21.36;60.44
5609;BME280;2826;51.354;9.588;2022-09-09T10:48:42;97652.63;;;21.38;58.09
5609;BME280;2826;51.354;9.588;2022-09-09T10:51:23;97640.78;;;21.14;57.12
5609;BME280;2826;51.354;9.588;2022-09-09T10:54:16;97652.56;;;21.00;58.48
5609;BME280;2826;51.354;9.588;2022-09-09T10:56:49;97651.63;;;20.91;58.53
5609;BME280;2826;51.354;9.588;2022-09-09T10:59:26;97647.16;;;20.82;57.82
5609;BME280;2826;51.354;9.588;2022-09-09T11:01:58;97653.09;;;20.84;57.09
5609;BME280;2826;51.354;9.588;2022-09-09T11:04:29;97630.78;;;20.78;56.67
5609;BME280;2826;51.354;9.588;2022-09-09T11:07:02;97632.59;;;21.07;55.62
5609;BME280;2826;51.354;9.588;2022-09-09T11:09:35;97638.66;;;21.37;54.85
5609;BME280;2826;51.354;9.588;2022-09-09T11:12:05;97638.34;;;21.40;54.61
5609;BME280;2826;51.354;9.588;2022-09-09T11:14:38;97640.56;;;21.45;54.27
5609;BME280;2826;51.354;9.588;2022-09-09T11:17:10;97645.34;;;21.79;53.58
5609;BME280;2826;51.354;9.588;2022-09-09T11:19:39;97644.97;;;22.21;53.23
5609;BME280;2826;51.354;9.588;2022-09-09T11:22:12;97635.09;;;22.23;49.83
5609;BME280;2826;51.354;9.588;2022-09-09T11:24:45;97637.75;;;22.23;50.68
5609;BME280;2826;51.354;9.588;2022-09-09T11:27:19;97626.84;;;22.08;51.26
5609;BME280;2826;51.354;9.588;2022-09-09T11:30:11;97655.31;;;21.86;51.18
5609;BME280;2826;51.354;9.588;2022-09-09T11:33:03;97636.63;;;21.59;50.75
5609;BME280;2826;51.354;9.588;2022-09-09T11:35:45;97642.34;;;21.45;51.13
5609;BME280;2826;51.354;9.588;2022-09-09T11:38:19;97630.28;;;21.42;51.18
5609;BME280;2826;51.354;9.588;2022-09-09T11:40:47;97633.91;;;21.41;51.92
5609;BME280;2826;51.354;9.588;2022-09-09T11:43:24;97634.75;;;21.32;53.00
5609;BME280;2826;51.354;9.588;2022-09-09T11:45:55;97632.72;;;21.15;53.03
5609;BME280;2826;51.354;9.588;2022-09-09T11:48:28;97642.28;;;21.17;53.34
5609;BME280;2826;51.354;9.588;2022-09-09T11:51:02;97630.63;;;21.09;51.99
5609;BME280;2826;51.354;9.588;2022-09-09T11:53:31;97637.16;;;20.85;52.06
5609;BME280;2826;51.354;9.588;2022-09-09T11:56:03;97627.47;;;20.56;53.32
5609;BME280;2826;51.354;9.588;2022-09-09T11:58:37;97625.66;;;20.37;53.88
5609;BME280;2826;51.354;9.588;2022-09-09T12:01:33;97631.59;;;20.29;55.47
5609;BME280;2826;51.354;9.588;2022-09-09T12:07:23;97640.06;;;20.33;57.42
5609;BME280;2826;51.354;9.588;2022-09-09T12:09:55;97646.00;;;20.25;55.85
5609;BME280;2826;51.354;9.588;2022-09-09T12:12:28;97653.84;;;20.05;55.72
5609;BME280;2826;51.354;9.588;2022-09-09T12:15:02;97643.06;;;20.18;55.14
5609;BME280;2826;51.354;9.588;2022-09-09T12:17:45;97645.75;;;20.48;53.50
5609;BME280;2826;51.354;9.588;2022-09-09T12:20:15;97652.56;;;20.60;54.07
5609;BME280;2826;51.354;9.588;2022-09-09T12:22:55;97658.09;;;20.47;55.23
5609;BME280;2826;51.354;9.588;2022-09-09T12:25:30;97656.09;;;20.20;56.12
5609;BME280;2826;51.354;9.588;2022-09-09T12:28:05;97662.63;;;19.94;57.59
5609;BME280;2826;51.354;9.588;2022-09-09T12:30:42;97674.31;;;19.70;58.85
5609;BME280;2826;51.354;9.588;2022-09-09T12:33:17;97666.66;;;19.57;59.46
5609;BME280;2826;51.354;9.588;2022-09-09T12:35:50;97675.16;;;19.50;60.22
5609;BME280;2826;51.354;9.588;2022-09-09T12:38:23;97674.53;;;19.36;61.45
5609;BME280;2826;51.354;9.588;2022-09-09T12:40:56;97670.50;;;19.32;62.38
5609;BME280;2826;51.354;9.588;2022-09-09T12:43:25;97663.91;;;19.38;63.17
5609;BME280;2826;51.354;9.588;2022-09-09T12:45:56;97654.09;;;19.40;62.95
5609;BME280;2826;51.354;9.588;2022-09-09T12:48:31;97637.16;;;19.32;62.53
5609;BME280;2826;51.354;9.588;2022-09-09T12:50:59;97651.91;;;19.45;62.83
5609;BME280;2826;51.354;9.588;2022-09-09T12:53:30;97653.81;;;19.43;62.05
5609;BME280;2826;51.354;9.588;2022-09-09T12:55:59;97635.50;;;19.31;59.68
5609;BME280;2826;51.354;9.588;2022-09-09T12:58:28;97642.22;;;19.24;59.75
5609;BME280;2826;51.354;9.588;2022-09-09T13:00:59;97646.66;;;19.24;60.07
5609;BME280;2826;51.354;9.588;2022-09-09T13:03:27;97647.38;;;19.26;59.03
5609;BME280;2826;51.354;9.588;2022-09-09T13:05:58;97646.84;;;19.32;58.46
5609;BME280;2826;51.354;9.588;2022-09-09T13:08:26;97648.25;;;19.36;58.33
5609;BME280;2826;51.354;9.588;2022-09-09T13:10:55;97642.19;;;19.45;58.70
5609;BME280;2826;51.354;9.588;2022-09-09T13:13:27;97638.84;;;19.65;57.90
5609;BME280;2826;51.354;9.588;2022-09-09T13:15:57;97643.09;;;19.87;57.36
5609;BME280;2826;51.354;9.588;2022-09-09T13:18:28;97638.34;;;20.02;56.02
5609;BME280;2826;51.354;9.588;2022-09-09T13:20:55;97640.75;;;20.25;53.48
5609;BME280;2826;51.354;9.588;2022-09-09T13:23:26;97635.22;;;20.58;51.65
5609;BME280;2826;51.354;9.588;2022-09-09T13:25:56;97631.22;;;20.83;51.13
5609;BME280;2826;51.354;9.588;2022-09-09T13:28:25;97627.75;;;20.93;50.83
5609;BME280;2826;51.354;9.588;2022-09-09T13:30:59;97619.44;;;20.87;48.42
5609;BME280;2826;51.354;9.588;2022-09-09T13:33:32;97594.72;;;20.69;50.59
5609;BME280;2826;51.354;9.588;2022-09-09T13:36:01;97618.31;;;21.00;51.35
5609;BME280;2826;51.354;9.588;2022-09-09T13:38:32;97613.56;;;21.61;51.28
5609;BME280;2826;51.354;9.588;2022-09-09T13:41:02;97624.09;;;22.27;49.29
5609;BME280;2826;51.354;9.588;2022-09-09T13:43:32;97612.34;;;22.76;48.16
5609;BME280;2826;51.354;9.588;2022-09-09T13:46:03;97619.75;;;23.17;46.63
5609;BME280;2826;51.354;9.588;2022-09-09T13:48:31;97611.53;;;23.20;46.16
5609;BME280;2826;51.354;9.588;2022-09-09T13:51:01;97610.22;;;23.25;46.82